Ganser Bar, California
Current Conditions -  °F | °C
As of 5:15 AM on Thursday 30 Oct 2014 (Local Time) from KCIC Reporting Station
Clear Clear  
Wind Chill: 54°   Ceiling: Unl
Heat Index: 54°   Visibility: 10mi
Dew Point: 50°   Wind: 5mph
Humidity: 88%   Direction: 340°NNW
Pressure: 29.96"   Gusts: NA
Location:  40.0464°N, 121.282°W
Report Text: KCIC 301215Z AUTO 34004KT 10SM CLR 12/10 A2996 RMK AO1
Loading
Personal Weather Stations






























Interactive Weather Map New forecast layout! Learn more

10-Day Weather Forecast

Advertisements
Track Severe Weather on mobile